createdAt,value
2019-01-16T00:00:59.579Z,87.07
2019-01-16T00:01:59.575Z,87.27
2019-01-16T00:02:59.561Z,87.27
2019-01-16T00:03:59.657Z,87.89
2019-01-16T00:04:59.531Z,88.20
2019-01-16T00:05:59.568Z,86.86
2019-01-16T00:06:59.538Z,87.89
2019-01-16T00:07:59.478Z,87.07
2019-01-16T00:08:59.486Z,86.76
2019-01-16T00:09:59.490Z,86.76
2019-01-16T00:10:59.485Z,86.96
2019-01-16T00:11:59.487Z,86.55
2019-01-16T00:12:59.435Z,87.68
2019-01-16T00:13:59.442Z,87.27
2019-01-16T00:14:59.410Z,87.17
2019-01-16T00:15:59.423Z,87.17
2019-01-16T00:16:59.404Z,87.37
2019-01-16T00:17:59.425Z,87.48
2019-01-16T00:18:59.375Z,87.27
2019-01-16T00:19:59.379Z,87.27
2019-01-16T00:20:59.360Z,87.99
2019-01-16T00:21:59.367Z,87.27
2019-01-16T00:22:59.330Z,87.17
2019-01-16T00:23:59.328Z,87.48
2019-01-16T00:24:59.303Z,87.27
2019-01-16T00:25:59.291Z,87.27
2019-01-16T00:26:59.278Z,87.17
2019-01-16T00:27:59.270Z,87.07
2019-01-16T00:28:59.255Z,87.10
2019-01-16T00:29:59.279Z,86.76
2019-01-16T00:30:59.358Z,87.27
2019-01-16T00:31:59.225Z,87.27
2019-01-16T00:32:59.256Z,87.27
2019-01-16T00:33:59.215Z,87.07
2019-01-16T00:34:59.235Z,86.96
2019-01-16T00:35:59.197Z,87.27
2019-01-16T00:36:59.210Z,87.68
2019-01-16T00:37:59.193Z,88.41
2019-01-16T00:38:59.162Z,88.10
2019-01-16T00:39:59.200Z,88.31
2019-01-16T00:40:59.138Z,87.79
2019-01-16T00:41:59.140Z,88.41
2019-01-16T00:42:59.134Z,88.10
2019-01-16T00:43:59.136Z,88.20
2019-01-16T00:44:59.091Z,88.41
2019-01-16T00:45:59.099Z,88.41
2019-01-16T00:46:59.069Z,88.61
2019-01-16T00:47:59.077Z,88.41
2019-01-16T00:48:59.062Z,88.71
2019-01-16T00:49:59.028Z,88.61
2019-01-16T00:50:59.035Z,88.31
2019-01-16T00:51:59.020Z,88.61
2019-01-16T00:52:59.078Z,88.51
2019-01-16T00:53:59.001Z,88.61
2019-01-16T00:54:58.978Z,88.61
2019-01-16T00:55:59.012Z,89.03
2019-01-16T00:56:58.972Z,89.03
2019-01-16T00:57:58.959Z,88.41
2019-01-16T00:58:59.052Z,88.31
2019-01-16T00:59:58.943Z,88.31
2019-01-16T01:00:58.907Z,88.61
2019-01-16T01:01:58.919Z,88.82
2019-01-16T01:02:58.914Z,88.31
2019-01-16T01:03:58.909Z,88.41
2019-01-16T01:04:58.880Z,88.20
2019-01-16T01:05:58.875Z,89.23
2019-01-16T01:06:58.870Z,88.82
2019-01-16T01:07:58.898Z,88.51
2019-01-16T01:08:58.866Z,88.61
2019-01-16T01:09:58.811Z,88.98
2019-01-16T01:10:58.811Z,88.82
2019-01-16T01:11:58.788Z,88.20
2019-01-16T01:12:58.782Z,88.61
2019-01-16T01:13:58.912Z,88.61
2019-01-16T01:14:58.776Z,88.41
2019-01-16T01:15:58.788Z,88.51
2019-01-16T01:16:58.764Z,88.82
2019-01-16T01:17:58.750Z,88.51
2019-01-16T01:18:58.753Z,89.03
2019-01-16T01:19:58.768Z,88.10
2019-01-16T01:20:58.711Z,88.41
2019-01-16T01:21:58.710Z,88.92
2019-01-16T01:22:58.696Z,88.71
2019-01-16T01:23:58.668Z,88.61
2019-01-16T01:24:58.707Z,88.31
2019-01-16T01:25:58.829Z,87.89
2019-01-16T01:26:58.646Z,88.71
2019-01-16T01:27:58.646Z,88.20
2019-01-16T01:28:58.628Z,88.10
2019-01-16T01:29:58.647Z,88.61
2019-01-16T01:30:58.611Z,88.51
2019-01-16T01:31:58.599Z,88.61
2019-01-16T01:32:58.569Z,87.89
2019-01-16T01:33:58.584Z,88.10
2019-01-16T01:34:58.577Z,88.61
2019-01-16T01:35:58.567Z,88.31
2019-01-16T01:36:58.539Z,88.89
2019-01-16T01:37:58.524Z,88.51
2019-01-16T01:38:58.610Z,88.20
2019-01-16T01:39:58.506Z,88.82
2019-01-16T01:40:58.522Z,88.71
2019-01-16T01:41:58.522Z,89.44
2019-01-16T01:42:58.475Z,89.44
2019-01-16T01:43:58.465Z,89.44
2019-01-16T01:44:58.435Z,88.82
2019-01-16T01:45:58.448Z,90.26
2019-01-16T01:46:58.606Z,89.95
2019-01-16T01:47:58.409Z,90.06
2019-01-16T01:48:58.410Z,89.95
2019-01-16T01:49:58.400Z,90.26
2019-01-16T01:50:58.373Z,89.95
2019-01-16T01:51:58.374Z,90.37
2019-01-16T01:52:58.376Z,90.16
2019-01-16T01:53:58.413Z,89.95
2019-01-16T01:54:58.328Z,89.95
2019-01-16T01:55:58.333Z,90.16
2019-01-16T01:56:58.360Z,90.16
2019-01-16T01:57:58.334Z,89.95
2019-01-16T01:58:58.316Z,90.06
2019-01-16T01:59:58.290Z,90.26
2019-01-16T02:00:58.262Z,90.26
2019-01-16T02:01:58.255Z,90.26
2019-01-16T02:02:58.256Z,90.16
2019-01-16T02:03:58.266Z,89.86
2019-01-16T02:04:58.265Z,89.75
2019-01-16T02:05:58.264Z,90.47
2019-01-16T02:06:58.229Z,90.06
2019-01-16T02:07:58.198Z,90.06
2019-01-16T02:08:58.198Z,89.95
2019-01-16T02:09:58.264Z,89.95
2019-01-16T02:10:58.205Z,90.16
2019-01-16T02:11:58.147Z,89.75
2019-01-16T02:12:58.156Z,90.47
2019-01-16T02:13:58.218Z,90.16
2019-01-16T02:14:58.137Z,89.95
2019-01-16T02:15:58.159Z,89.86
2019-01-16T02:16:58.145Z,89.95
2019-01-16T02:17:58.073Z,90.16
2019-01-16T02:18:58.120Z,89.75
2019-01-16T02:19:58.059Z,89.54
2019-01-16T02:20:58.090Z,89.03
2019-01-16T02:21:58.046Z,89.03
2019-01-16T02:22:58.049Z,90.06
2019-01-16T02:23:58.126Z,89.54
2019-01-16T02:24:58.077Z,88.82
2019-01-16T02:25:58.014Z,88.92
2019-01-16T02:26:57.986Z,89.34
2019-01-16T02:27:58.017Z,88.71
2019-01-16T02:28:57.990Z,89.44
2019-01-16T02:29:57.969Z,89.69
2019-01-16T02:30:57.942Z,89.13
2019-01-16T02:31:57.951Z,89.13
2019-01-16T02:32:57.949Z,88.61
2019-01-16T02:33:57.924Z,89.03
2019-01-16T02:34:57.924Z,89.13
2019-01-16T02:35:57.925Z,89.03
2019-01-16T02:36:57.872Z,89.13
2019-01-16T02:37:57.877Z,89.95
2019-01-16T02:38:57.867Z,90.16
2019-01-16T02:39:57.869Z,89.44
2019-01-16T02:40:57.882Z,89.23
2019-01-16T02:41:57.818Z,88.61
2019-01-16T02:42:57.808Z,88.82
2019-01-16T02:43:57.823Z,88.82
2019-01-16T02:44:57.805Z,88.51
2019-01-16T02:45:57.814Z,88.92
2019-01-16T02:46:57.766Z,88.76
2019-01-16T02:47:57.784Z,88.71
2019-01-16T02:48:57.763Z,89.34
2019-01-16T02:49:57.793Z,89.13
2019-01-16T02:50:57.747Z,90.47
2019-01-16T02:51:57.703Z,89.13
2019-01-16T02:52:57.705Z,89.03
2019-01-16T02:53:57.723Z,89.54
2019-01-16T02:54:57.720Z,89.44
2019-01-16T02:55:57.829Z,88.82
2019-01-16T02:56:57.680Z,89.17
2019-01-16T02:57:57.645Z,89.54
2019-01-16T02:58:57.644Z,88.92
2019-01-16T02:59:57.656Z,89.07
2019-01-16T03:00:57.735Z,88.61
2019-01-16T03:01:57.623Z,89.44
2019-01-16T03:02:57.581Z,88.86
2019-01-16T03:03:57.599Z,88.96
2019-01-16T03:04:57.579Z,89.03
2019-01-16T03:05:57.573Z,88.96
2019-01-16T03:06:57.586Z,89.13
2019-01-16T03:07:57.557Z,89.03
2019-01-16T03:08:57.529Z,89.17
2019-01-16T03:09:57.518Z,89.54
2019-01-16T03:10:57.566Z,89.23
2019-01-16T03:11:57.520Z,89.17
2019-01-16T03:12:57.495Z,88.86
2019-01-16T03:13:57.501Z,88.61
2019-01-16T03:14:57.563Z,88.34
2019-01-16T03:15:57.479Z,88.51
2019-01-16T03:16:57.446Z,88.45
2019-01-16T03:17:57.430Z,88.55
2019-01-16T03:19:04.490Z,88.51
2019-01-16T03:19:58.440Z,88.76
2019-01-16T03:20:57.482Z,88.55
2019-01-16T03:21:57.403Z,88.20
2019-01-16T03:22:57.375Z,88.92
2019-01-16T03:23:57.382Z,88.34
2019-01-16T03:24:57.349Z,88.61
2019-01-16T03:25:57.365Z,87.99
2019-01-16T03:26:57.374Z,88.76
2019-01-16T03:27:57.318Z,89.03
2019-01-16T03:28:57.314Z,88.04
2019-01-16T03:29:57.345Z,88.20
2019-01-16T03:30:57.330Z,87.93
2019-01-16T03:31:57.290Z,87.83
2019-01-16T03:32:57.261Z,88.31
2019-01-16T03:33:57.251Z,88.20
2019-01-16T03:34:57.249Z,88.34
2019-01-16T03:35:57.274Z,87.89
2019-01-16T03:36:57.247Z,87.62
2019-01-16T03:37:57.207Z,87.79
2019-01-16T03:38:57.219Z,87.68
2019-01-16T03:39:57.196Z,87.93
2019-01-16T03:40:57.194Z,88.10
2019-01-16T03:41:57.177Z,88.31
2019-01-16T03:42:57.161Z,88.41
2019-01-16T03:43:57.145Z,87.99
2019-01-16T03:44:57.159Z,87.99
2019-01-16T03:45:57.169Z,87.99
2019-01-16T03:46:57.139Z,87.89
2019-01-16T03:47:57.105Z,87.79
2019-01-16T03:48:57.133Z,88.04
2019-01-16T03:49:57.094Z,87.37
2019-01-16T03:50:57.140Z,87.52
2019-01-16T03:51:57.091Z,87.21
2019-01-16T03:52:57.050Z,87.31
2019-01-16T03:53:57.086Z,87.31
2019-01-16T03:54:57.017Z,88.34
2019-01-16T03:55:57.022Z,87.52
2019-01-16T03:56:57.052Z,87.21
2019-01-16T03:57:57.003Z,87.83
2019-01-16T03:58:57.003Z,87.37
2019-01-16T03:59:56.988Z,88.65
2019-01-16T04:00:56.970Z,87.00
2019-01-16T04:01:56.974Z,87.00
2019-01-16T04:02:56.981Z,86.49
2019-01-16T04:03:56.966Z,87.21
2019-01-16T04:04:56.939Z,86.76
2019-01-16T04:05:56.932Z,86.90
2019-01-16T04:06:56.910Z,86.65
2019-01-16T04:07:56.895Z,86.44
2019-01-16T04:08:56.897Z,86.90
2019-01-16T04:09:56.904Z,86.69
2019-01-16T04:10:56.889Z,86.13
2019-01-16T04:11:56.855Z,86.79
2019-01-16T04:12:57.053Z,86.76
2019-01-16T04:13:56.865Z,86.59
2019-01-16T04:14:56.823Z,86.76
2019-01-16T04:15:56.809Z,86.76
2019-01-16T04:16:56.788Z,86.76
2019-01-16T04:17:56.786Z,85.93
2019-01-16T04:18:56.767Z,85.97
2019-01-16T04:19:56.754Z,85.86
2019-01-16T04:20:56.738Z,85.93
2019-01-16T04:21:56.734Z,85.83
2019-01-16T04:22:56.754Z,86.03
2019-01-16T04:23:56.727Z,86.13
2019-01-16T04:24:56.702Z,85.62
2019-01-16T04:25:56.708Z,86.03
2019-01-16T04:26:58.337Z,85.86
2019-01-16T04:27:56.673Z,85.76
2019-01-16T04:28:56.650Z,85.76
2019-01-16T04:29:56.654Z,86.55
2019-01-16T04:30:56.634Z,85.93
2019-01-16T04:31:56.630Z,86.34
2019-01-16T04:32:56.654Z,86.55
2019-01-16T04:33:56.624Z,85.83
2019-01-16T04:34:56.622Z,85.93
2019-01-16T04:35:56.590Z,85.10
2019-01-16T04:36:56.571Z,85.93
2019-01-16T04:37:56.584Z,85.72
2019-01-16T04:38:56.589Z,86.65
2019-01-16T04:39:56.635Z,85.62
2019-01-16T04:40:56.534Z,85.14
2019-01-16T04:41:56.516Z,84.69
2019-01-16T04:42:56.526Z,85.72
2019-01-16T04:43:56.497Z,85.93
2019-01-16T04:44:56.524Z,86.13
2019-01-16T04:45:56.495Z,85.83
2019-01-16T04:46:56.454Z,85.00
2019-01-16T04:47:56.451Z,85.41
2019-01-16T04:48:56.575Z,85.14
2019-01-16T04:49:56.472Z,85.86
2019-01-16T04:50:56.416Z,86.03
2019-01-16T04:51:56.510Z,86.13
2019-01-16T04:52:56.432Z,86.03
2019-01-16T04:53:56.408Z,84.79
2019-01-16T04:54:56.401Z,85.72
2019-01-16T04:55:56.398Z,85.31
2019-01-16T04:56:56.364Z,85.31
2019-01-16T04:57:56.372Z,85.10
2019-01-16T04:58:56.332Z,86.24
2019-01-16T04:59:56.317Z,85.00
2019-01-16T05:00:56.326Z,84.79
2019-01-16T05:01:56.350Z,84.79
2019-01-16T05:02:56.308Z,84.89
2019-01-16T05:03:56.270Z,85.62
2019-01-16T05:04:56.273Z,85.86
2019-01-16T05:05:56.267Z,84.79
2019-01-16T05:06:56.270Z,84.83
2019-01-16T05:07:56.292Z,84.59
2019-01-16T05:08:56.242Z,85.04
2019-01-16T05:09:56.211Z,84.59
2019-01-16T05:10:56.198Z,86.03
2019-01-16T05:11:56.258Z,85.93
2019-01-16T05:12:56.175Z,85.76
2019-01-16T05:13:56.178Z,84.69
2019-01-16T05:14:56.219Z,85.00
2019-01-16T05:15:56.145Z,85.00
2019-01-16T05:16:56.144Z,85.00
2019-01-16T05:17:56.137Z,85.21
2019-01-16T05:18:56.126Z,84.89
2019-01-16T05:19:56.163Z,84.38
2019-01-16T05:20:56.184Z,85.41
2019-01-16T05:21:56.086Z,85.24
2019-01-16T05:22:56.104Z,83.86
2019-01-16T05:23:56.061Z,85.21
2019-01-16T05:24:56.050Z,84.07
2019-01-16T05:25:56.059Z,84.48
2019-01-16T05:26:56.050Z,83.65
2019-01-16T05:27:56.031Z,84.38
2019-01-16T05:28:56.028Z,85.10
2019-01-16T05:29:56.045Z,84.38
2019-01-16T05:30:56.082Z,83.34
2019-01-16T05:31:55.997Z,83.76
2019-01-16T05:32:55.988Z,83.86
2019-01-16T05:33:55.962Z,83.55
2019-01-16T05:34:55.938Z,84.07
2019-01-16T05:35:56.107Z,84.07
2019-01-16T05:36:55.920Z,83.97
2019-01-16T05:37:55.922Z,84.38
2019-01-16T05:38:55.923Z,83.97
2019-01-16T05:39:55.910Z,83.45
2019-01-16T05:40:55.909Z,83.55
2019-01-16T05:41:55.889Z,84.17
2019-01-16T05:42:55.874Z,83.45
2019-01-16T05:43:55.856Z,83.25
2019-01-16T05:44:55.848Z,83.97
2019-01-16T05:45:55.836Z,83.65
2019-01-16T05:46:55.970Z,83.97
2019-01-16T05:47:55.823Z,83.65
2019-01-16T05:48:55.803Z,83.18
2019-01-16T05:49:55.984Z,83.65
2019-01-16T05:50:55.810Z,84.07
2019-01-16T05:51:55.767Z,83.76
2019-01-16T05:52:55.772Z,83.76
2019-01-16T05:53:55.735Z,84.48
2019-01-16T05:54:55.774Z,84.59
2019-01-16T05:55:55.745Z,85.21
2019-01-16T05:56:55.712Z,84.28
2019-01-16T05:57:55.706Z,84.31
2019-01-16T05:58:55.737Z,84.31
2019-01-16T05:59:55.676Z,84.38
2019-01-16T06:00:55.688Z,83.97
2019-01-16T06:01:55.650Z,84.31
2019-01-16T06:02:55.633Z,84.28
2019-01-16T06:03:55.620Z,84.00
2019-01-16T06:04:55.643Z,84.31
2019-01-16T06:05:55.608Z,84.31
2019-01-16T06:06:55.678Z,84.00
2019-01-16T06:07:55.580Z,85.04
2019-01-16T06:08:55.633Z,85.04
2019-01-16T06:09:55.604Z,84.00
2019-01-16T06:10:55.551Z,85.04
2019-01-16T06:11:55.550Z,84.83
2019-01-16T06:12:55.534Z,84.73
2019-01-16T06:13:55.585Z,84.73
2019-01-16T06:14:55.507Z,83.90
2019-01-16T06:15:55.550Z,83.90
2019-01-16T06:16:55.489Z,84.00
2019-01-16T06:17:55.491Z,83.70
2019-01-16T06:18:55.612Z,84.11
2019-01-16T06:19:55.523Z,84.21
2019-01-16T06:20:55.487Z,83.70
2019-01-16T06:21:55.443Z,83.90
2019-01-16T06:22:55.509Z,84.00
2019-01-16T06:23:55.422Z,84.00
2019-01-16T06:24:55.410Z,84.21
2019-01-16T06:25:55.411Z,83.63
2019-01-16T06:26:55.419Z,83.80
2019-01-16T06:27:55.388Z,83.59
2019-01-16T06:28:55.363Z,83.70
2019-01-16T06:29:55.355Z,84.21
2019-01-16T06:30:55.404Z,83.59
2019-01-16T06:31:55.403Z,83.32
2019-01-16T06:32:55.330Z,83.73
2019-01-16T06:33:55.302Z,83.42
2019-01-16T06:34:55.324Z,83.90
2019-01-16T06:35:55.314Z,83.49
2019-01-16T06:36:55.289Z,83.42
2019-01-16T06:37:55.335Z,83.49
2019-01-16T06:38:55.247Z,83.18
2019-01-16T06:39:55.238Z,83.59
2019-01-16T06:40:55.253Z,84.11
2019-01-16T06:41:55.217Z,83.39
2019-01-16T06:42:55.215Z,82.29
2019-01-16T06:43:55.248Z,82.15
2019-01-16T06:44:55.184Z,82.35
2019-01-16T06:45:55.202Z,83.32
2019-01-16T06:46:55.184Z,83.39
2019-01-16T06:47:55.148Z,81.94
2019-01-16T06:48:55.136Z,82.35
2019-01-16T06:50:01.632Z,82.76
2019-01-16T06:50:56.112Z,82.29
2019-01-16T06:51:55.186Z,81.52
2019-01-16T06:52:55.113Z,82.04
2019-01-16T06:53:55.104Z,81.63
2019-01-16T06:54:55.084Z,82.39
2019-01-16T06:55:55.087Z,82.50
2019-01-16T06:56:55.064Z,83.11
2019-01-16T06:57:55.071Z,82.70
2019-01-16T06:58:55.048Z,82.08
2019-01-16T06:59:55.044Z,83.63
2019-01-16T07:00:55.053Z,82.50
2019-01-16T07:01:55.003Z,83.63
2019-01-16T07:02:55.008Z,82.70
2019-01-16T07:03:55.010Z,83.01
2019-01-16T07:04:55.008Z,82.08
2019-01-16T07:05:54.972Z,83.63
2019-01-16T07:06:54.938Z,82.18
2019-01-16T07:07:54.930Z,82.29
2019-01-16T07:08:54.924Z,82.29
2019-01-16T07:09:54.923Z,81.67
2019-01-16T07:10:55.033Z,82.39
2019-01-16T07:11:54.878Z,83.11
2019-01-16T07:12:54.875Z,83.01
2019-01-16T07:13:54.912Z,82.60
2019-01-16T07:14:54.869Z,83.11
2019-01-16T07:15:54.861Z,82.29
2019-01-16T07:16:54.843Z,81.25
2019-01-16T07:17:54.840Z,82.08
2019-01-16T07:18:54.806Z,81.67
2019-01-16T07:19:54.813Z,81.87
2019-01-16T07:20:54.792Z,80.84
2019-01-16T07:21:54.781Z,82.29
2019-01-16T07:22:54.859Z,82.39
2019-01-16T07:23:54.770Z,81.98
2019-01-16T07:24:54.745Z,81.56
2019-01-16T07:25:54.829Z,82.70
2019-01-16T07:26:54.722Z,81.56
2019-01-16T07:27:54.708Z,81.15
2019-01-16T07:28:54.710Z,80.94
2019-01-16T07:29:54.682Z,81.05
2019-01-16T07:30:54.718Z,80.94
2019-01-16T07:31:54.665Z,81.67
2019-01-16T07:32:54.657Z,81.15
2019-01-16T07:33:54.688Z,81.46
2019-01-16T07:34:54.639Z,81.46
2019-01-16T07:35:54.631Z,80.74
2019-01-16T07:36:54.667Z,81.05
2019-01-16T07:37:54.611Z,80.43
2019-01-16T07:38:54.628Z,80.84
2019-01-16T07:39:54.632Z,81.05
2019-01-16T07:40:54.565Z,81.15
2019-01-16T07:41:54.597Z,81.98
2019-01-16T07:42:54.596Z,81.67
2019-01-16T07:43:54.557Z,81.15
2019-01-16T07:44:54.537Z,81.67
2019-01-16T07:45:54.520Z,81.98
2019-01-16T07:46:54.513Z,81.87
2019-01-16T07:47:54.509Z,81.87
2019-01-16T07:48:54.521Z,82.60
2019-01-16T07:49:54.504Z,81.87
2019-01-16T07:50:54.502Z,82.39
2019-01-16T07:51:54.518Z,80.94
2019-01-16T07:52:54.448Z,81.67
2019-01-16T07:53:54.549Z,80.94
2019-01-16T07:54:54.428Z,81.87
2019-01-16T07:55:54.419Z,81.98
2019-01-16T07:56:54.435Z,81.35
2019-01-16T07:57:54.599Z,81.35
2019-01-16T07:58:54.398Z,80.74
2019-01-16T07:59:54.388Z,81.05
2019-01-16T08:00:54.374Z,81.56
2019-01-16T08:01:54.432Z,80.53
2019-01-16T08:02:54.369Z,80.84
2019-01-16T08:03:54.366Z,81.25
2019-01-16T08:04:54.319Z,81.25
2019-01-16T08:05:54.313Z,81.77
2019-01-16T08:06:54.322Z,81.46
2019-01-16T08:07:54.287Z,81.98
2019-01-16T08:08:54.280Z,82.18
2019-01-16T08:09:54.320Z,82.29
2019-01-16T08:10:54.258Z,81.98
2019-01-16T08:11:54.318Z,82.29
2019-01-16T08:12:54.321Z,82.39
2019-01-16T08:13:54.257Z,80.94
2019-01-16T08:14:54.284Z,82.60
2019-01-16T08:15:54.216Z,83.22
2019-01-16T08:16:54.227Z,82.80
2019-01-16T08:17:54.172Z,82.39
2019-01-16T08:18:54.176Z,82.80
2019-01-16T08:19:54.287Z,81.77
2019-01-16T08:20:54.150Z,82.29
2019-01-16T08:21:54.133Z,82.60
2019-01-16T08:22:54.117Z,82.08
2019-01-16T08:23:54.118Z,81.77
2019-01-16T08:24:54.098Z,81.87
2019-01-16T08:25:54.108Z,82.29
2019-01-16T08:26:54.073Z,81.15
2019-01-16T08:27:54.082Z,81.87
2019-01-16T08:28:54.084Z,81.25
2019-01-16T08:29:54.069Z,81.25
2019-01-16T08:30:54.022Z,80.63
2019-01-16T08:31:54.114Z,80.94
2019-01-16T08:32:54.065Z,82.12
2019-01-16T08:33:54.011Z,81.25
2019-01-16T08:34:53.982Z,81.56
2019-01-16T08:35:54.030Z,81.05
2019-01-16T08:36:53.992Z,80.94
2019-01-16T08:37:53.970Z,80.84
2019-01-16T08:38:53.959Z,81.05
2019-01-16T08:39:53.945Z,81.29
2019-01-16T08:40:53.931Z,81.29
2019-01-16T08:41:53.915Z,80.77
2019-01-16T08:42:53.909Z,80.36
2019-01-16T08:43:53.900Z,80.88
2019-01-16T08:44:53.883Z,81.09
2019-01-16T08:45:53.999Z,79.94
2019-01-16T08:46:53.875Z,80.94
2019-01-16T08:47:53.866Z,79.84
2019-01-16T08:48:53.831Z,81.09
2019-01-16T08:49:53.918Z,80.77
2019-01-16T08:50:53.807Z,81.09
2019-01-16T08:51:57.770Z,80.98
2019-01-16T08:52:53.787Z,81.09
2019-01-16T08:53:53.792Z,81.98
2019-01-16T08:54:53.806Z,81.15
2019-01-16T08:55:53.776Z,80.11
2019-01-16T08:56:53.739Z,80.88
2019-01-16T08:57:53.747Z,80.84
2019-01-16T08:58:53.873Z,80.88
2019-01-16T08:59:53.711Z,81.29
2019-01-16T09:00:53.700Z,79.63
2019-01-16T09:01:53.722Z,80.88
2019-01-16T09:02:53.696Z,80.57
2019-01-16T09:03:53.691Z,79.74
2019-01-16T09:04:53.685Z,80.26
2019-01-16T09:05:53.653Z,80.77
2019-01-16T09:06:53.635Z,80.98
2019-01-16T09:07:53.635Z,80.77
2019-01-16T09:08:53.605Z,80.67
2019-01-16T09:09:53.605Z,80.98
2019-01-16T09:10:53.613Z,79.84
2019-01-16T09:11:53.641Z,80.98
2019-01-16T09:12:53.585Z,80.67
2019-01-16T09:13:53.611Z,80.57
2019-01-16T09:14:53.553Z,80.98
2019-01-16T09:15:53.536Z,80.98
2019-01-16T09:16:53.532Z,80.98
2019-01-16T09:17:53.670Z,79.74
2019-01-16T09:18:53.503Z,81.39
2019-01-16T09:19:53.524Z,80.88
2019-01-16T09:20:53.480Z,81.29
2019-01-16T09:21:53.558Z,81.09
2019-01-16T09:22:53.501Z,81.49
2019-01-16T09:23:53.451Z,79.33
2019-01-16T09:24:53.454Z,80.05
2019-01-16T09:25:53.429Z,80.26
2019-01-16T09:26:53.511Z,79.63
2019-01-16T09:27:53.435Z,80.15
2019-01-16T09:28:53.412Z,80.15
2019-01-16T09:29:53.389Z,79.12
2019-01-16T09:30:53.379Z,81.19
2019-01-16T09:31:53.444Z,79.94
2019-01-16T09:32:53.399Z,80.57
2019-01-16T09:33:53.364Z,79.53
2019-01-16T09:34:53.378Z,80.05
2019-01-16T09:35:53.333Z,81.19
2019-01-16T09:36:53.440Z,80.46
2019-01-16T09:37:53.302Z,80.46
2019-01-16T09:38:53.310Z,79.33
2019-01-16T09:39:53.318Z,79.94
2019-01-16T09:40:53.262Z,79.02
2019-01-16T09:41:53.258Z,80.46
2019-01-16T09:42:53.352Z,79.22
2019-01-16T09:43:53.308Z,80.05
2019-01-16T09:44:53.316Z,79.74
2019-01-16T09:45:53.334Z,78.91
2019-01-16T09:46:53.280Z,79.33
2019-01-16T09:47:53.210Z,81.19
2019-01-16T09:48:53.217Z,78.60
2019-01-16T09:49:53.176Z,78.91
2019-01-16T09:50:53.169Z,80.36
2019-01-16T09:51:53.564Z,80.67
2019-01-16T09:52:53.145Z,79.94
2019-01-16T09:53:53.202Z,79.33
2019-01-16T09:54:53.117Z,80.57
2019-01-16T09:55:53.122Z,80.67
2019-01-16T09:56:53.145Z,79.84
2019-01-16T09:57:53.109Z,80.77
2019-01-16T09:58:53.073Z,81.09
2019-01-16T09:59:53.067Z,79.43
2019-01-16T10:00:53.048Z,79.22
2019-01-16T10:01:53.043Z,79.63
2019-01-16T10:02:53.049Z,80.88
2019-01-16T10:03:53.077Z,81.29
2019-01-16T10:04:53.012Z,80.77
2019-01-16T10:05:52.997Z,79.02
2019-01-16T10:06:52.992Z,79.84
2019-01-16T10:07:53.005Z,80.26
2019-01-16T10:08:52.998Z,79.53
2019-01-16T10:09:52.954Z,80.05
2019-01-16T10:10:52.985Z,80.26
2019-01-16T10:11:52.941Z,80.67
2019-01-16T10:12:52.930Z,80.57
2019-01-16T10:13:52.979Z,79.91
2019-01-16T10:14:52.916Z,80.74
2019-01-16T10:15:53.026Z,79.91
2019-01-16T10:16:52.973Z,81.05
2019-01-16T10:17:52.995Z,79.80
2019-01-16T10:18:52.877Z,81.29
2019-01-16T10:19:52.846Z,81.46
2019-01-16T10:20:55.826Z,80.84
2019-01-16T10:21:52.838Z,80.22
2019-01-16T10:22:52.838Z,80.53
2019-01-16T10:23:52.820Z,79.70
2019-01-16T10:24:52.792Z,79.19
2019-01-16T10:25:52.811Z,80.01
2019-01-16T10:26:52.825Z,79.49
2019-01-16T10:27:52.763Z,80.74
2019-01-16T10:28:52.756Z,79.80
2019-01-16T10:29:52.736Z,79.19
2019-01-16T10:30:52.854Z,80.32
2019-01-16T10:31:52.751Z,81.56
2019-01-16T10:32:52.760Z,78.67
2019-01-16T10:33:52.730Z,78.98
2019-01-16T10:34:52.702Z,81.05
2019-01-16T10:35:52.700Z,78.98
2019-01-16T10:36:52.667Z,80.01
2019-01-16T10:37:52.744Z,80.22
2019-01-16T10:38:52.644Z,80.43
2019-01-16T10:39:52.630Z,80.22
2019-01-16T10:40:52.625Z,80.63
2019-01-16T10:41:52.626Z,80.94
2019-01-16T10:42:52.651Z,79.49
2019-01-16T10:43:52.617Z,78.36
2019-01-16T10:44:52.584Z,78.56
2019-01-16T10:45:52.609Z,79.29
2019-01-16T10:46:52.567Z,78.67
2019-01-16T10:47:52.550Z,79.60
2019-01-16T10:48:52.615Z,80.01
2019-01-16T10:49:52.552Z,80.01
2019-01-16T10:50:52.541Z,80.32
2019-01-16T10:51:52.497Z,80.63
2019-01-16T10:52:52.526Z,78.56
2019-01-16T10:53:52.514Z,78.46
2019-01-16T10:54:52.505Z,78.46
2019-01-16T10:55:52.480Z,79.80
2019-01-16T10:56:52.466Z,78.46
2019-01-16T10:57:52.498Z,79.29
2019-01-16T10:58:52.443Z,79.29
2019-01-16T10:59:52.443Z,81.05
2019-01-16T11:00:52.445Z,79.08
2019-01-16T11:01:52.389Z,78.56
2019-01-16T11:02:52.404Z,78.67
2019-01-16T11:03:52.422Z,78.98
2019-01-16T11:04:52.361Z,78.46
2019-01-16T11:05:52.363Z,79.22
2019-01-16T11:06:52.386Z,80.22
2019-01-16T11:07:52.402Z,79.39
2019-01-16T11:08:52.324Z,78.88
2019-01-16T11:09:52.302Z,78.56
2019-01-16T11:10:52.343Z,78.56
2019-01-16T11:11:52.314Z,79.91
2019-01-16T11:12:52.336Z,81.46
2019-01-16T11:13:52.274Z,80.53
2019-01-16T11:14:52.277Z,80.63
2019-01-16T11:15:52.248Z,81.05
2019-01-16T11:16:56.693Z,79.39
2019-01-16T11:17:52.245Z,79.49
2019-01-16T11:18:52.260Z,79.29
2019-01-16T11:19:52.219Z,79.39
2019-01-16T11:20:52.198Z,79.19
2019-01-16T11:21:52.177Z,78.67
2019-01-16T11:22:52.201Z,78.88
2019-01-16T11:23:52.308Z,78.46
2019-01-16T11:24:52.145Z,79.49
2019-01-16T11:25:52.144Z,79.60
2019-01-16T11:26:52.157Z,81.05
2019-01-16T11:27:52.113Z,78.56
2019-01-16T11:28:52.121Z,79.39
2019-01-16T11:29:52.135Z,80.60
2019-01-16T11:30:52.082Z,81.05
2019-01-16T11:31:52.123Z,80.22
2019-01-16T11:32:52.079Z,79.70
2019-01-16T11:33:52.062Z,79.36
2019-01-16T11:34:52.050Z,77.12
2019-01-16T11:35:52.106Z,77.53
2019-01-16T11:36:52.007Z,78.46
2019-01-16T11:37:52.015Z,77.53
2019-01-16T11:38:52.002Z,77.64
2019-01-16T11:39:52.024Z,78.05
2019-01-16T11:40:51.992Z,78.56
2019-01-16T11:41:51.990Z,79.29
2019-01-16T11:42:51.976Z,78.67
2019-01-16T11:43:52.000Z,78.74
2019-01-16T11:44:51.932Z,78.53
2019-01-16T11:45:51.927Z,78.84
2019-01-16T11:46:51.919Z,78.77
2019-01-16T11:47:51.913Z,79.15
2019-01-16T11:48:51.884Z,78.53
2019-01-16T11:49:51.883Z,78.08
2019-01-16T11:50:51.886Z,78.80
2019-01-16T11:51:51.878Z,76.94
2019-01-16T11:52:51.866Z,77.56
2019-01-16T11:53:51.858Z,78.49
2019-01-16T11:54:51.829Z,78.59
2019-01-16T11:55:51.801Z,76.22
2019-01-16T11:56:51.817Z,76.94
2019-01-16T11:57:51.808Z,76.73
2019-01-16T11:58:51.802Z,77.15
2019-01-16T11:59:51.785Z,76.94
2019-01-16T12:00:51.767Z,76.22
2019-01-16T12:01:51.762Z,76.22
2019-01-16T12:02:51.774Z,78.70
2019-01-16T12:03:51.755Z,78.28
2019-01-16T12:04:51.758Z,77.15
2019-01-16T12:05:51.694Z,76.64
2019-01-16T12:06:51.685Z,76.84
2019-01-16T12:07:51.701Z,78.39
2019-01-16T12:08:51.676Z,78.28
2019-01-16T12:09:51.673Z,78.39
2019-01-16T12:10:51.696Z,76.32
2019-01-16T12:11:51.648Z,76.94
2019-01-16T12:12:51.630Z,76.73
2019-01-16T12:13:51.610Z,76.43
2019-01-16T12:14:51.617Z,78.59
2019-01-16T12:15:51.631Z,78.59
2019-01-16T12:16:51.583Z,76.12
2019-01-16T12:17:51.573Z,77.15
2019-01-16T12:18:51.565Z,78.70
2019-01-16T12:19:51.740Z,76.94
2019-01-16T12:20:51.559Z,76.84
2019-01-16T12:21:51.542Z,76.01
2019-01-16T12:22:51.511Z,76.81
2019-01-16T12:23:51.502Z,76.90
2019-01-16T12:24:51.557Z,78.45
2019-01-16T12:25:51.501Z,76.70
2019-01-16T12:26:51.479Z,76.60
2019-01-16T12:27:51.489Z,76.90
2019-01-16T12:28:51.448Z,75.46
2019-01-16T12:29:51.459Z,77.01
2019-01-16T12:30:51.457Z,76.39
2019-01-16T12:31:51.621Z,76.60
2019-01-16T12:32:51.428Z,75.87
2019-01-16T12:33:51.415Z,76.90
2019-01-16T12:34:51.416Z,76.73
2019-01-16T12:35:51.395Z,77.42
2019-01-16T12:36:51.392Z,75.87
2019-01-16T12:37:51.364Z,77.11
2019-01-16T12:38:51.360Z,76.90
2019-01-16T12:39:51.329Z,75.57
2019-01-16T12:40:51.329Z,75.32
2019-01-16T12:41:51.317Z,75.22
2019-01-16T12:42:51.318Z,76.67
2019-01-16T12:43:51.289Z,75.87
2019-01-16T12:44:51.353Z,76.70
2019-01-16T12:45:51.261Z,76.04
2019-01-16T12:46:51.268Z,75.01
2019-01-16T12:47:51.263Z,74.12
2019-01-16T12:48:51.259Z,75.46
2019-01-16T12:49:51.241Z,75.98
2019-01-16T12:50:51.233Z,76.60
2019-01-16T12:51:51.199Z,75.98
2019-01-16T12:52:54.269Z,77.01